createdAt,value
2017-07-20T00:01:13.644Z,23.96
2017-07-20T00:03:41.262Z,23.96
2017-07-20T00:06:08.986Z,23.94
2017-07-20T00:08:36.612Z,23.94
2017-07-20T00:11:04.279Z,23.92
2017-07-20T00:13:31.908Z,23.91
2017-07-20T00:15:59.594Z,23.88
2017-07-20T00:18:27.198Z,23.86
2017-07-20T00:20:54.855Z,23.85
2017-07-20T00:23:22.453Z,23.83
2017-07-20T00:25:50.096Z,23.83
2017-07-20T00:28:18.043Z,23.81
2017-07-20T00:30:45.695Z,23.80
2017-07-20T00:33:13.323Z,23.79
2017-07-20T00:35:40.966Z,23.77
2017-07-20T00:38:08.584Z,23.77
2017-07-20T00:40:36.234Z,23.77
2017-07-20T00:43:03.861Z,23.75
2017-07-20T00:45:31.583Z,23.75
2017-07-20T00:47:59.228Z,23.75
2017-07-20T00:50:26.856Z,23.74
2017-07-20T00:52:54.505Z,23.73
2017-07-20T00:55:22.123Z,23.71
2017-07-20T00:57:49.721Z,23.69
2017-07-20T01:00:17.342Z,23.67
2017-07-20T01:02:45.060Z,23.66
2017-07-20T01:05:12.676Z,23.65
2017-07-20T01:07:40.320Z,23.65
2017-07-20T01:10:07.949Z,23.61
2017-07-20T01:12:35.758Z,23.60
2017-07-20T01:15:03.391Z,23.59
2017-07-20T01:17:31.063Z,23.55
2017-07-20T01:19:58.684Z,23.53
2017-07-20T01:22:26.306Z,23.49
2017-07-20T01:24:53.919Z,23.46
2017-07-20T01:27:21.666Z,23.44
2017-07-20T01:29:49.292Z,23.43
2017-07-20T01:32:16.926Z,23.41
2017-07-20T01:34:44.552Z,23.41
2017-07-20T01:37:12.209Z,23.42
2017-07-20T01:39:40.426Z,23.43
2017-07-20T01:42:08.060Z,23.43
2017-07-20T01:44:35.671Z,23.41
2017-07-20T01:47:03.295Z,23.38
2017-07-20T01:49:30.887Z,23.35
2017-07-20T01:51:58.527Z,23.32
2017-07-20T01:54:26.313Z,23.30
2017-07-20T01:56:53.957Z,23.28
2017-07-20T01:59:21.612Z,23.25
2017-07-20T02:01:49.380Z,23.22
2017-07-20T02:04:16.977Z,23.16
2017-07-20T02:06:44.661Z,23.16
2017-07-20T02:09:12.298Z,23.16
2017-07-20T02:11:39.939Z,23.17
2017-07-20T02:14:07.688Z,23.17
2017-07-20T02:16:35.386Z,23.15
2017-07-20T02:19:03.015Z,23.13
2017-07-20T02:21:30.672Z,23.11
2017-07-20T02:23:58.286Z,23.11
2017-07-20T02:26:25.931Z,23.08
2017-07-20T02:28:53.548Z,23.07
2017-07-20T02:31:21.445Z,23.05
2017-07-20T02:33:49.075Z,23.05
2017-07-20T02:36:16.686Z,23.04
2017-07-20T02:38:44.326Z,23.04
2017-07-20T02:41:11.935Z,23.03
2017-07-20T02:43:39.587Z,23.01
2017-07-20T02:46:07.286Z,22.97
2017-07-20T02:48:34.985Z,22.97
2017-07-20T02:51:02.578Z,22.94
2017-07-20T02:53:30.262Z,22.90
2017-07-20T02:55:57.871Z,22.88
2017-07-20T02:58:25.527Z,22.86
2017-07-20T03:00:53.175Z,22.84
2017-07-20T03:03:20.813Z,22.82
2017-07-20T03:05:48.835Z,22.80
2017-07-20T03:08:16.471Z,22.80
2017-07-20T03:10:44.313Z,22.80
2017-07-20T03:13:12.094Z,22.83
2017-07-20T03:15:39.752Z,22.84
2017-07-20T03:18:08.071Z,22.84
2017-07-20T03:20:35.690Z,22.82
2017-07-20T03:23:03.338Z,22.77
2017-07-20T03:25:31.155Z,22.74
2017-07-20T03:27:58.795Z,22.70
2017-07-20T03:30:26.404Z,22.69
2017-07-20T03:32:54.114Z,22.69
2017-07-20T03:35:22.066Z,22.69
2017-07-20T03:37:49.684Z,22.71
2017-07-20T03:40:17.292Z,22.63
2017-07-20T03:42:44.955Z,22.57
2017-07-20T03:45:12.578Z,22.48
2017-07-20T03:47:40.238Z,22.43
2017-07-20T03:50:07.833Z,22.43
2017-07-20T03:52:35.509Z,22.41
2017-07-20T03:55:03.137Z,22.38
2017-07-20T03:57:30.792Z,22.29
2017-07-20T03:59:58.539Z,22.21
2017-07-20T04:02:26.581Z,22.15
2017-07-20T04:04:54.375Z,22.08
2017-07-20T04:07:22.044Z,22.02
2017-07-20T04:09:49.703Z,21.96
2017-07-20T04:12:17.308Z,21.95
2017-07-20T04:14:44.939Z,21.92
2017-07-20T04:17:12.687Z,21.94
2017-07-20T04:19:40.460Z,21.96
2017-07-20T04:22:08.221Z,21.97
2017-07-20T04:24:35.868Z,21.95
2017-07-20T04:27:03.575Z,21.94
2017-07-20T04:29:31.220Z,21.95
2017-07-20T04:31:58.842Z,21.94
2017-07-20T04:34:26.502Z,21.92
2017-07-20T04:36:54.131Z,21.91
2017-07-20T04:39:21.791Z,21.94
2017-07-20T04:41:50.499Z,21.98
2017-07-20T04:44:18.259Z,22.01
2017-07-20T04:46:45.958Z,22.03
2017-07-20T04:49:13.593Z,22.05
2017-07-20T04:51:41.258Z,22.06
2017-07-20T04:54:08.907Z,22.10
2017-07-20T04:56:36.559Z,22.15
2017-07-20T04:59:07.584Z,22.18
2017-07-20T05:01:35.318Z,22.18
2017-07-20T05:04:03.071Z,22.20
2017-07-20T05:06:30.689Z,22.23
2017-07-20T05:08:58.421Z,22.27
2017-07-20T05:11:26.191Z,22.33
2017-07-20T05:13:53.857Z,22.38
2017-07-20T05:16:21.677Z,22.39
2017-07-20T05:18:49.315Z,22.38
2017-07-20T05:21:16.921Z,22.36
2017-07-20T05:23:44.562Z,22.36
2017-07-20T05:26:12.185Z,22.41
2017-07-20T05:28:39.843Z,22.45
2017-07-20T05:31:07.448Z,22.48
2017-07-20T05:33:35.502Z,22.54
2017-07-20T05:36:03.120Z,22.58
2017-07-20T05:38:30.734Z,22.65
2017-07-20T05:40:58.362Z,22.69
2017-07-20T05:43:25.995Z,22.70
2017-07-20T05:45:53.642Z,22.72
2017-07-20T05:48:21.275Z,22.76
2017-07-20T05:50:49.111Z,22.80
2017-07-20T05:53:16.740Z,22.85
2017-07-20T05:55:44.537Z,22.90
2017-07-20T05:58:12.162Z,22.92
2017-07-20T06:00:39.821Z,23.00
2017-07-20T06:03:07.432Z,22.99
2017-07-20T06:05:35.084Z,23.00
2017-07-20T06:08:02.736Z,23.01
2017-07-20T06:10:30.411Z,23.07
2017-07-20T06:12:58.077Z,23.12
2017-07-20T06:15:25.727Z,23.17
2017-07-20T06:17:53.350Z,23.22
2017-07-20T06:20:21.014Z,23.29
2017-07-20T06:22:48.658Z,23.37
2017-07-20T06:25:16.284Z,23.52
2017-07-20T06:27:43.968Z,23.67
2017-07-20T06:30:23.224Z,23.78
2017-07-20T06:32:50.875Z,23.92
2017-07-20T06:35:18.549Z,24.01
2017-07-20T06:37:46.178Z,24.10
2017-07-20T06:40:13.843Z,24.14
2017-07-20T06:42:41.455Z,24.14
2017-07-20T06:45:09.096Z,24.13
2017-07-20T06:47:36.744Z,24.13
2017-07-20T06:50:04.393Z,24.13
2017-07-20T06:52:32.027Z,24.13
2017-07-20T06:54:59.724Z,24.11
2017-07-20T06:57:27.431Z,24.07
2017-07-20T06:59:55.092Z,24.00
2017-07-20T07:02:22.734Z,24.07
2017-07-20T07:04:50.471Z,24.17
2017-07-20T07:07:18.118Z,24.29
2017-07-20T07:09:46.080Z,24.38
2017-07-20T07:12:13.724Z,24.43
2017-07-20T07:14:41.360Z,24.52
2017-07-20T07:17:09.061Z,24.63
2017-07-20T07:19:36.688Z,24.69
2017-07-20T07:22:04.392Z,24.78
2017-07-20T07:24:32.033Z,24.86
2017-07-20T07:26:59.691Z,24.91
2017-07-20T07:29:27.316Z,24.97
2017-07-20T07:31:54.983Z,25.06
2017-07-20T07:34:22.609Z,25.10
2017-07-20T07:36:50.237Z,25.19
2017-07-20T07:39:17.875Z,25.26
2017-07-20T07:41:45.523Z,25.33
2017-07-20T07:44:13.159Z,25.43
2017-07-20T07:46:40.894Z,25.55
2017-07-20T07:49:08.545Z,25.64
2017-07-20T07:51:36.207Z,25.69
2017-07-20T07:54:03.869Z,25.77
2017-07-20T07:56:31.514Z,25.81
2017-07-20T07:58:59.125Z,25.81
2017-07-20T08:01:26.759Z,25.86
2017-07-20T08:03:54.434Z,25.96
2017-07-20T08:06:22.259Z,26.05
2017-07-20T08:08:49.884Z,26.12
2017-07-20T08:11:17.553Z,26.20
2017-07-20T08:13:45.180Z,26.32
2017-07-20T08:16:12.958Z,26.36
2017-07-20T08:18:40.579Z,26.42
2017-07-20T08:21:08.206Z,26.47
2017-07-20T08:23:35.897Z,26.53
2017-07-20T08:26:03.549Z,26.61
2017-07-20T08:28:31.188Z,26.66
2017-07-20T08:30:58.842Z,26.71
2017-07-20T08:33:26.468Z,26.74
2017-07-20T08:35:54.154Z,26.79
2017-07-20T08:38:21.807Z,26.92
2017-07-20T08:40:49.618Z,27.08
2017-07-20T08:43:17.275Z,27.22
2017-07-20T08:45:44.894Z,27.36
2017-07-20T08:48:12.598Z,27.46
2017-07-20T08:50:40.203Z,27.61
2017-07-20T08:53:07.961Z,27.69
2017-07-20T08:55:35.603Z,27.73
2017-07-20T08:58:03.306Z,27.85
2017-07-20T09:00:30.944Z,27.93
2017-07-20T09:02:58.600Z,27.94
2017-07-20T09:05:26.319Z,28.04
2017-07-20T09:07:53.962Z,28.11
2017-07-20T09:10:21.878Z,28.13
2017-07-20T09:12:49.544Z,28.11
2017-07-20T09:15:17.162Z,28.14
2017-07-20T09:17:44.802Z,28.20
2017-07-20T09:20:12.442Z,28.32
2017-07-20T09:22:40.143Z,28.41
2017-07-20T09:25:07.785Z,28.55
2017-07-20T09:27:35.465Z,28.70
2017-07-20T09:30:03.291Z,28.82
2017-07-20T09:32:31.025Z,28.85
2017-07-20T09:34:58.666Z,28.88
2017-07-20T09:37:26.668Z,28.90
2017-07-20T09:39:54.315Z,28.88
2017-07-20T09:42:21.921Z,28.90
2017-07-20T09:44:49.519Z,29.00
2017-07-20T09:47:17.156Z,28.95
2017-07-20T09:49:45.688Z,29.00
2017-07-20T09:52:13.325Z,29.02
2017-07-20T09:54:41.014Z,28.96
2017-07-20T09:57:08.751Z,28.86
2017-07-20T09:59:36.401Z,28.82
2017-07-20T10:02:04.236Z,28.88
2017-07-20T10:04:31.859Z,28.97
2017-07-20T10:06:59.851Z,29.08
2017-07-20T10:09:27.597Z,29.09
2017-07-20T10:11:55.294Z,29.13
2017-07-20T10:14:22.942Z,29.20
2017-07-20T10:16:50.637Z,29.26
2017-07-20T10:19:18.498Z,29.25
2017-07-20T10:21:46.153Z,29.30
2017-07-20T10:24:13.817Z,29.28
2017-07-20T10:26:41.454Z,29.28
2017-07-20T10:29:09.148Z,29.32
2017-07-20T10:31:36.783Z,29.43
2017-07-20T10:34:04.474Z,29.46
2017-07-20T10:36:32.127Z,29.48
2017-07-20T10:38:59.789Z,29.39
2017-07-20T10:41:27.401Z,29.45
2017-07-20T10:43:55.063Z,29.37
2017-07-20T10:46:22.708Z,29.30
2017-07-20T10:48:50.484Z,29.23
2017-07-20T10:51:18.163Z,29.16
2017-07-20T10:53:45.811Z,29.21
2017-07-20T10:56:13.465Z,29.30
2017-07-20T10:58:41.118Z,29.44
2017-07-20T11:01:08.826Z,29.53
2017-07-20T11:03:36.474Z,29.58
2017-07-20T11:06:04.105Z,29.58
2017-07-20T11:08:31.754Z,29.61
2017-07-20T11:10:59.415Z,29.71
2017-07-20T11:13:27.079Z,29.69
2017-07-20T11:15:54.807Z,29.80
2017-07-20T11:18:22.463Z,29.81
2017-07-20T11:20:50.154Z,29.83
2017-07-20T11:23:17.791Z,29.86
2017-07-20T11:25:45.479Z,30.02
2017-07-20T11:28:13.272Z,30.25
2017-07-20T11:30:40.897Z,30.23
2017-07-20T11:33:08.567Z,30.26
2017-07-20T11:35:36.280Z,30.30
2017-07-20T11:38:03.958Z,30.21
2017-07-20T11:40:31.589Z,30.13
2017-07-20T11:42:59.217Z,30.15
2017-07-20T11:45:26.906Z,30.21
2017-07-20T11:47:54.541Z,30.18
2017-07-20T11:50:22.260Z,30.20
2017-07-20T11:52:49.968Z,30.15
2017-07-20T11:55:17.619Z,30.01
2017-07-20T11:57:45.323Z,30.13
2017-07-20T12:00:14.054Z,30.22
2017-07-20T12:02:41.679Z,30.25
2017-07-20T12:05:09.393Z,30.21
2017-07-20T12:07:37.029Z,30.19
2017-07-20T12:10:04.831Z,30.02
2017-07-20T12:12:32.482Z,29.94
2017-07-20T12:15:00.365Z,29.93
2017-07-20T12:17:28.128Z,29.90
2017-07-20T12:19:55.825Z,29.77
2017-07-20T12:22:23.453Z,29.64
2017-07-20T12:24:51.092Z,29.55
2017-07-20T12:27:18.733Z,29.52
2017-07-20T12:29:46.383Z,29.60
2017-07-20T12:32:14.071Z,29.71
2017-07-20T12:34:41.782Z,29.81
2017-07-20T12:37:09.551Z,29.92
2017-07-20T12:39:37.275Z,29.82
2017-07-20T12:42:04.910Z,30.00
2017-07-20T12:44:32.609Z,29.86
2017-07-20T12:47:00.241Z,29.80
2017-07-20T12:49:27.905Z,29.50
2017-07-20T12:51:55.544Z,29.33
2017-07-20T12:54:23.258Z,29.29
2017-07-20T12:56:50.872Z,29.28
2017-07-20T12:59:18.593Z,29.09
2017-07-20T13:01:46.257Z,29.09
2017-07-20T13:04:14.032Z,29.00
2017-07-20T13:06:41.715Z,28.86
2017-07-20T13:09:09.336Z,28.72
2017-07-20T13:11:37.040Z,28.57
2017-07-20T13:14:04.699Z,28.48
2017-07-20T13:16:32.409Z,28.35
2017-07-20T13:19:00.044Z,28.30
2017-07-20T13:21:27.792Z,28.24
2017-07-20T13:23:55.451Z,28.11
2017-07-20T13:26:23.131Z,28.05
2017-07-20T13:28:50.882Z,27.96
2017-07-20T13:31:18.535Z,27.76
2017-07-20T13:33:46.222Z,27.65
2017-07-20T13:36:13.960Z,27.49
2017-07-20T13:38:41.725Z,27.25
2017-07-20T13:41:09.394Z,27.05
2017-07-20T13:43:37.047Z,26.87
2017-07-20T13:46:04.879Z,26.63
2017-07-20T13:48:32.511Z,26.33
2017-07-20T13:51:00.164Z,26.07
2017-07-20T13:53:27.817Z,25.85
2017-07-20T13:55:55.460Z,25.63
2017-07-20T13:58:23.087Z,25.51
2017-07-20T14:00:50.771Z,25.40
2017-07-20T14:03:18.406Z,25.21
2017-07-20T14:05:46.076Z,24.94
2017-07-20T14:08:13.700Z,24.79
2017-07-20T14:10:41.355Z,24.67
2017-07-20T14:13:08.976Z,24.47
2017-07-20T14:15:36.765Z,24.29
2017-07-20T14:18:04.408Z,24.10
2017-07-20T14:20:32.160Z,24.01
2017-07-20T14:22:59.917Z,23.82
2017-07-20T14:25:27.577Z,23.61
2017-07-20T14:27:55.219Z,23.45
2017-07-20T14:30:22.972Z,23.31
2017-07-20T14:32:50.891Z,23.11
2017-07-20T14:35:18.804Z,22.99
2017-07-20T14:37:46.449Z,22.87
2017-07-20T14:40:14.147Z,22.80
2017-07-20T14:42:41.964Z,22.70
2017-07-20T14:45:09.648Z,22.60
2017-07-20T14:47:37.318Z,22.55
2017-07-20T14:50:04.958Z,22.52
2017-07-20T14:52:32.646Z,22.54
2017-07-20T14:55:00.283Z,22.50
2017-07-20T14:57:27.934Z,22.48
2017-07-20T14:59:55.565Z,22.47
2017-07-20T15:02:23.217Z,22.46
2017-07-20T15:04:50.838Z,22.41
2017-07-20T15:07:18.503Z,22.35
2017-07-20T15:09:46.142Z,22.33
2017-07-20T15:12:13.950Z,22.31
2017-07-20T15:14:41.580Z,22.30
2017-07-20T15:17:09.275Z,22.30
2017-07-20T15:19:36.912Z,22.31
2017-07-20T15:22:04.587Z,22.31
2017-07-20T15:24:32.340Z,22.31
2017-07-20T15:27:00.003Z,22.33
2017-07-20T15:29:27.639Z,22.30
2017-07-20T15:31:55.418Z,22.29
2017-07-20T15:34:23.097Z,22.28
2017-07-20T15:36:50.775Z,22.19
2017-07-20T15:39:18.459Z,22.07
2017-07-20T15:41:46.888Z,22.01
2017-07-20T15:44:14.625Z,21.93
2017-07-20T15:46:42.268Z,21.90
2017-07-20T15:49:09.902Z,21.87
2017-07-20T15:51:37.745Z,21.83
2017-07-20T15:54:05.546Z,21.79
2017-07-20T15:56:33.224Z,21.76
2017-07-20T15:59:00.867Z,21.74
2017-07-20T16:01:28.531Z,21.76
2017-07-20T16:03:56.330Z,21.77
2017-07-20T16:06:23.984Z,21.77
2017-07-20T16:08:51.635Z,21.76
2017-07-20T16:11:19.257Z,21.76
2017-07-20T16:13:47.020Z,21.75
2017-07-20T16:16:14.702Z,21.74
2017-07-20T16:18:42.458Z,21.72
2017-07-20T16:21:10.178Z,21.72
2017-07-20T16:23:37.959Z,21.73
2017-07-20T16:26:05.575Z,21.62
2017-07-20T16:28:33.215Z,21.52
2017-07-20T16:31:00.874Z,21.48
2017-07-20T16:33:28.542Z,21.42
2017-07-20T16:35:56.163Z,21.38
2017-07-20T16:38:23.810Z,21.33
2017-07-20T16:40:51.438Z,21.36
2017-07-20T16:43:19.523Z,21.36
2017-07-20T16:45:47.156Z,21.37
2017-07-20T16:48:15.406Z,21.37
2017-07-20T16:50:43.062Z,21.38
2017-07-20T16:53:10.842Z,21.35
2017-07-20T16:55:38.471Z,21.36
2017-07-20T16:58:06.130Z,21.33
2017-07-20T17:00:33.889Z,21.36
2017-07-20T17:03:01.531Z,21.39
2017-07-20T17:05:29.190Z,21.40
2017-07-20T17:07:58.491Z,21.43
2017-07-20T17:10:26.133Z,21.46
2017-07-20T17:12:53.920Z,21.45
2017-07-20T17:15:21.613Z,21.50
2017-07-20T17:17:49.363Z,21.51
2017-07-20T17:20:17.033Z,21.52
2017-07-20T17:22:44.659Z,21.55
2017-07-20T17:25:12.585Z,21.51
2017-07-20T17:27:40.206Z,21.52
2017-07-20T17:30:07.826Z,21.52
2017-07-20T17:32:35.481Z,21.50
2017-07-20T17:35:03.111Z,21.49
2017-07-20T17:37:30.915Z,21.48
2017-07-20T17:39:58.612Z,21.49
2017-07-20T17:42:26.300Z,21.48
2017-07-20T17:44:54.383Z,21.46
2017-07-20T17:47:22.311Z,21.46
2017-07-20T17:49:49.915Z,21.47
2017-07-20T17:52:17.544Z,21.50
2017-07-20T17:54:45.251Z,21.52
2017-07-20T17:57:13.042Z,21.50
2017-07-20T17:59:40.727Z,21.44
2017-07-20T18:02:08.346Z,21.42
2017-07-20T18:04:36.020Z,21.43
2017-07-20T18:07:05.172Z,21.47
2017-07-20T18:09:32.862Z,21.45
2017-07-20T18:12:00.684Z,21.44
2017-07-20T18:14:28.377Z,21.34
2017-07-20T18:16:56.132Z,21.28
2017-07-20T18:19:23.982Z,21.31
2017-07-20T18:21:51.741Z,21.32
2017-07-20T18:24:19.465Z,21.30
2017-07-20T18:26:47.179Z,21.32
2017-07-20T18:29:15.131Z,21.33
2017-07-20T18:31:43.052Z,21.35
2017-07-20T18:34:10.738Z,21.36
2017-07-20T18:36:38.400Z,21.37
2017-07-20T18:39:06.382Z,21.32
2017-07-20T18:41:34.455Z,21.26
2017-07-20T18:44:02.163Z,21.19
2017-07-20T18:46:30.276Z,21.21
2017-07-20T18:48:57.949Z,21.20
2017-07-20T18:51:25.874Z,21.15
2017-07-20T18:53:53.511Z,21.14
2017-07-20T18:56:21.543Z,21.12
2017-07-20T18:58:49.220Z,21.08
2017-07-20T19:01:16.845Z,21.06
2017-07-20T19:03:44.504Z,21.03
2017-07-20T19:06:12.274Z,21.01
2017-07-20T19:08:40.056Z,20.99
2017-07-20T19:11:12.249Z,20.97
2017-07-20T19:13:39.938Z,20.95
2017-07-20T19:16:07.674Z,20.93
2017-07-20T19:18:35.323Z,20.89
2017-07-20T19:21:02.994Z,20.89
2017-07-20T19:23:30.649Z,20.88
2017-07-20T19:25:58.307Z,20.86
2017-07-20T19:28:26.218Z,20.80
2017-07-20T19:30:53.858Z,20.73
2017-07-20T19:33:21.672Z,20.72
2017-07-20T19:35:49.618Z,20.73
2017-07-20T19:38:17.331Z,20.72
2017-07-20T19:40:46.912Z,20.70
2017-07-20T19:43:14.608Z,20.66
2017-07-20T19:45:42.225Z,20.65
2017-07-20T19:48:09.924Z,20.66
2017-07-20T19:50:37.641Z,20.64
2017-07-20T19:53:05.284Z,20.61
2017-07-20T19:55:32.937Z,20.61
2017-07-20T19:58:00.866Z,20.60
2017-07-20T20:00:28.499Z,20.60
2017-07-20T20:02:56.123Z,20.62
2017-07-20T20:05:23.813Z,20.61
2017-07-20T20:07:51.455Z,20.59
2017-07-20T20:10:19.134Z,20.54
2017-07-20T20:12:46.773Z,20.52
2017-07-20T20:15:14.472Z,20.50
2017-07-20T20:17:42.158Z,20.47
2017-07-20T20:20:09.869Z,20.45
2017-07-20T20:22:37.506Z,20.44
2017-07-20T20:25:05.487Z,20.40
2017-07-20T20:27:33.092Z,20.37
2017-07-20T20:30:00.847Z,20.36
2017-07-20T20:32:28.609Z,20.30
2017-07-20T20:34:56.223Z,20.31
2017-07-20T20:37:23.879Z,20.29
2017-07-20T20:39:51.526Z,20.27
2017-07-20T20:42:19.460Z,20.24
2017-07-20T20:44:47.073Z,20.22
2017-07-20T20:47:14.779Z,20.18
2017-07-20T20:49:42.445Z,20.15
2017-07-20T20:52:10.069Z,20.13
2017-07-20T20:54:37.711Z,20.13
2017-07-20T20:57:05.320Z,20.10
2017-07-20T20:59:33.252Z,20.05
2017-07-20T21:02:01.007Z,20.02
2017-07-20T21:04:28.702Z,19.98
2017-07-20T21:06:56.402Z,19.99
2017-07-20T21:09:24.066Z,20.00
2017-07-20T21:11:51.708Z,19.98
2017-07-20T21:14:19.358Z,19.93
2017-07-20T21:16:47.045Z,19.88
2017-07-20T21:19:14.679Z,19.85
2017-07-20T21:21:42.446Z,19.82
2017-07-20T21:24:10.086Z,19.83
2017-07-20T21:26:37.716Z,19.82
2017-07-20T21:29:05.454Z,19.82
2017-07-20T21:31:33.137Z,19.82
2017-07-20T21:34:00.800Z,19.77
2017-07-20T21:36:28.420Z,19.77
2017-07-20T21:38:56.243Z,19.78
2017-07-20T21:41:23.877Z,19.73
2017-07-20T21:43:51.535Z,19.71
2017-07-20T21:46:19.425Z,19.70
2017-07-20T21:48:47.100Z,19.68
2017-07-20T21:51:14.719Z,19.66
2017-07-20T21:53:42.635Z,19.63
2017-07-20T21:56:11.267Z,19.62
2017-07-20T21:58:38.905Z,19.54
2017-07-20T22:01:06.552Z,19.48
2017-07-20T22:03:34.171Z,19.48
2017-07-20T22:06:01.832Z,19.48
2017-07-20T22:08:29.509Z,19.48
2017-07-20T22:10:57.420Z,19.48
2017-07-20T22:13:25.031Z,19.47
2017-07-20T22:15:52.693Z,19.39
2017-07-20T22:18:20.372Z,19.33
2017-07-20T22:20:47.994Z,19.25
2017-07-20T22:23:15.677Z,19.20
2017-07-20T22:25:43.314Z,19.18
2017-07-20T22:28:11.275Z,19.18
2017-07-20T22:30:38.930Z,19.24
2017-07-20T22:33:06.569Z,19.26
2017-07-20T22:35:34.337Z,19.26
2017-07-20T22:38:01.980Z,19.26
2017-07-20T22:40:29.712Z,19.26
2017-07-20T22:42:57.356Z,19.25
2017-07-20T22:45:25.138Z,19.24
2017-07-20T22:47:52.909Z,19.23
2017-07-20T22:50:20.560Z,19.23
2017-07-20T22:52:48.241Z,19.25
2017-07-20T22:55:15.874Z,19.23
2017-07-20T22:57:43.557Z,19.19
2017-07-20T23:00:11.224Z,19.08
2017-07-20T23:02:38.914Z,19.01
2017-07-20T23:05:06.548Z,18.98
2017-07-20T23:07:34.156Z,18.96
2017-07-20T23:10:01.794Z,18.97
2017-07-20T23:12:29.426Z,18.96
2017-07-20T23:14:57.192Z,18.92
2017-07-20T23:17:24.801Z,18.87
2017-07-20T23:19:52.446Z,18.80
2017-07-20T23:22:20.074Z,18.75
2017-07-20T23:24:47.694Z,18.73
2017-07-20T23:27:15.456Z,18.71
2017-07-20T23:29:43.121Z,18.69
2017-07-20T23:32:10.762Z,18.66
2017-07-20T23:34:38.439Z,18.64
2017-07-20T23:37:06.074Z,18.65
2017-07-20T23:39:33.708Z,18.68
2017-07-20T23:42:01.344Z,18.64
2017-07-20T23:44:28.994Z,18.61
2017-07-20T23:46:56.610Z,18.64
2017-07-20T23:49:24.355Z,18.66
2017-07-20T23:51:51.972Z,18.66
2017-07-20T23:54:19.616Z,18.65
2017-07-20T23:56:47.243Z,18.65
2017-07-20T23:59:14.994Z,18.64
